sensor_id;sensor_type;location;lat;lon;timestamp;temperature;humidity
26907;DHT22;14472;56.880;16.658;2022-08-19T00:01:57;23.40;1.00
26907;DHT22;14472;56.880;16.658;2022-08-19T00:04:29;23.40;1.00
26907;DHT22;14472;56.880;16.658;2022-08-19T00:06:59;23.30;1.00
26907;DHT22;14472;56.880;16.658;2022-08-19T00:09:28;23.30;1.00
26907;DHT22;14472;56.880;16.658;2022-08-19T00:11:54;23.30;1.00
26907;DHT22;14472;56.880;16.658;2022-08-19T00:14:22;23.30;1.00
26907;DHT22;14472;56.880;16.658;2022-08-19T00:16:48;23.30;1.00
26907;DHT22;14472;56.880;16.658;2022-08-19T00:19:15;23.20;1.00
26907;DHT22;14472;56.880;16.658;2022-08-19T00:21:41;23.30;1.00
26907;DHT22;14472;56.880;16.658;2022-08-19T00:24:09;23.20;1.00
26907;DHT22;14472;56.880;16.658;2022-08-19T00:26:35;23.20;1.00
26907;DHT22;14472;56.880;16.658;2022-08-19T00:29:02;23.20;1.00
26907;DHT22;14472;56.880;16.658;2022-08-19T00:31:28;23.10;1.00
26907;DHT22;14472;56.880;16.658;2022-08-19T00:33:54;23.10;1.00
26907;DHT22;14472;56.880;16.658;2022-08-19T00:36:20;23.10;1.00
26907;DHT22;14472;56.880;16.658;2022-08-19T00:38:46;23.10;1.00
26907;DHT22;14472;56.880;16.658;2022-08-19T00:41:14;23.10;1.00
26907;DHT22;14472;56.880;16.658;2022-08-19T00:43:41;23.10;1.00
26907;DHT22;14472;56.880;16.658;2022-08-19T00:46:07;23.10;1.00
26907;DHT22;14472;56.880;16.658;2022-08-19T00:48:33;23.10;1.00
26907;DHT22;14472;56.880;16.658;2022-08-19T00:51:01;23.10;1.00
26907;DHT22;14472;56.880;16.658;2022-08-19T00:53:29;23.10;1.00
26907;DHT22;14472;56.880;16.658;2022-08-19T00:55:56;23.10;1.00
26907;DHT22;14472;56.880;16.658;2022-08-19T00:58:27;23.00;1.00
26907;DHT22;14472;56.880;16.658;2022-08-19T01:00:53;23.00;1.00
26907;DHT22;14472;56.880;16.658;2022-08-19T01:03:20;22.90;1.00
26907;DHT22;14472;56.880;16.658;2022-08-19T01:05:48;22.90;1.00
26907;DHT22;14472;56.880;16.658;2022-08-19T01:08:15;22.90;1.00
26907;DHT22;14472;56.880;16.658;2022-08-19T01:10:49;22.90;1.00
26907;DHT22;14472;56.880;16.658;2022-08-19T01:13:19;22.90;1.00
26907;DHT22;14472;56.880;16.658;2022-08-19T01:15:50;22.90;1.00
26907;DHT22;14472;56.880;16.658;2022-08-19T01:18:19;22.90;1.00
26907;DHT22;14472;56.880;16.658;2022-08-19T01:20:46;22.90;1.00
26907;DHT22;14472;56.880;16.658;2022-08-19T01:23:12;22.90;1.00
26907;DHT22;14472;56.880;16.658;2022-08-19T01:25:45;22.80;1.00
26907;DHT22;14472;56.880;16.658;2022-08-19T01:28:23;22.80;1.00
26907;DHT22;14472;56.880;16.658;2022-08-19T01:30:51;22.80;1.00
26907;DHT22;14472;56.880;16.658;2022-08-19T01:33:17;22.80;1.00
26907;DHT22;14472;56.880;16.658;2022-08-19T01:35:46;22.80;1.00
26907;DHT22;14472;56.880;16.658;2022-08-19T01:38:25;22.80;1.00
26907;DHT22;14472;56.880;16.658;2022-08-19T01:40:51;22.80;1.00
26907;DHT22;14472;56.880;16.658;2022-08-19T01:43:18;22.70;1.00
26907;DHT22;14472;56.880;16.658;2022-08-19T01:45:44;22.70;1.00
26907;DHT22;14472;56.880;16.658;2022-08-19T01:48:10;22.70;1.00
26907;DHT22;14472;56.880;16.658;2022-08-19T01:50:36;22.60;1.00
26907;DHT22;14472;56.880;16.658;2022-08-19T01:53:05;22.60;1.00
26907;DHT22;14472;56.880;16.658;2022-08-19T01:55:31;22.60;1.00
26907;DHT22;14472;56.880;16.658;2022-08-19T01:58:01;22.60;1.00
26907;DHT22;14472;56.880;16.658;2022-08-19T02:00:29;22.60;1.00
26907;DHT22;14472;56.880;16.658;2022-08-19T02:02:56;22.60;1.00
26907;DHT22;14472;56.880;16.658;2022-08-19T02:05:22;22.50;1.00
26907;DHT22;14472;56.880;16.658;2022-08-19T02:07:49;22.50;1.00
26907;DHT22;14472;56.880;16.658;2022-08-19T02:10:18;22.40;1.00
26907;DHT22;14472;56.880;16.658;2022-08-19T02:12:44;22.40;1.00
26907;DHT22;14472;56.880;16.658;2022-08-19T02:15:11;22.40;1.00
26907;DHT22;14472;56.880;16.658;2022-08-19T02:17:37;22.40;1.00
26907;DHT22;14472;56.880;16.658;2022-08-19T02:20:04;22.40;1.00
26907;DHT22;14472;56.880;16.658;2022-08-19T02:22:32;22.40;1.00
26907;DHT22;14472;56.880;16.658;2022-08-19T02:24:57;22.40;1.00
26907;DHT22;14472;56.880;16.658;2022-08-19T02:27:23;22.40;1.00
26907;DHT22;14472;56.880;16.658;2022-08-19T02:29:50;22.30;1.00
26907;DHT22;14472;56.880;16.658;2022-08-19T02:32:17;22.40;1.00
26907;DHT22;14472;56.880;16.658;2022-08-19T02:34:45;22.30;1.00
26907;DHT22;14472;56.880;16.658;2022-08-19T02:37:11;22.30;1.00
26907;DHT22;14472;56.880;16.658;2022-08-19T02:39:57;22.30;1.00
26907;DHT22;14472;56.880;16.658;2022-08-19T02:42:23;22.30;1.00
26907;DHT22;14472;56.880;16.658;2022-08-19T02:44:49;22.30;1.00
26907;DHT22;14472;56.880;16.658;2022-08-19T02:47:15;22.20;1.00
26907;DHT22;14472;56.880;16.658;2022-08-19T02:49:41;22.30;1.00
26907;DHT22;14472;56.880;16.658;2022-08-19T02:52:07;22.20;1.00
26907;DHT22;14472;56.880;16.658;2022-08-19T02:54:33;22.20;1.00
26907;DHT22;14472;56.880;16.658;2022-08-19T02:56:58;22.20;1.00
26907;DHT22;14472;56.880;16.658;2022-08-19T02:59:24;22.10;1.00
26907;DHT22;14472;56.880;16.658;2022-08-19T03:01:52;22.10;1.00
26907;DHT22;14472;56.880;16.658;2022-08-19T03:04:18;22.10;1.00
26907;DHT22;14472;56.880;16.658;2022-08-19T03:06:46;22.10;1.00
26907;DHT22;14472;56.880;16.658;2022-08-19T03:09:12;22.10;1.00
26907;DHT22;14472;56.880;16.658;2022-08-19T03:11:38;22.10;1.00
26907;DHT22;14472;56.880;16.658;2022-08-19T03:14:06;22.10;1.00
26907;DHT22;14472;56.880;16.658;2022-08-19T03:16:43;22.20;1.00
26907;DHT22;14472;56.880;16.658;2022-08-19T03:19:09;22.20;1.00
26907;DHT22;14472;56.880;16.658;2022-08-19T03:21:35;22.20;1.00
26907;DHT22;14472;56.880;16.658;2022-08-19T03:24:04;22.10;1.00
26907;DHT22;14472;56.880;16.658;2022-08-19T03:26:30;22.10;1.00
26907;DHT22;14472;56.880;16.658;2022-08-19T03:29:02;22.10;1.00
26907;DHT22;14472;56.880;16.658;2022-08-19T03:31:28;22.10;1.00
26907;DHT22;14472;56.880;16.658;2022-08-19T03:33:53;22.20;1.00
26907;DHT22;14472;56.880;16.658;2022-08-19T03:36:25;22.20;1.00
26907;DHT22;14472;56.880;16.658;2022-08-19T03:38:57;22.20;1.00
26907;DHT22;14472;56.880;16.658;2022-08-19T03:41:35;22.20;1.00
26907;DHT22;14472;56.880;16.658;2022-08-19T03:44:02;22.20;1.00
26907;DHT22;14472;56.880;16.658;2022-08-19T03:46:30;22.20;1.00
26907;DHT22;14472;56.880;16.658;2022-08-19T03:48:57;22.20;1.00
26907;DHT22;14472;56.880;16.658;2022-08-19T03:51:33;22.20;1.00
26907;DHT22;14472;56.880;16.658;2022-08-19T03:54:02;22.20;1.00
26907;DHT22;14472;56.880;16.658;2022-08-19T03:56:29;22.20;1.00
26907;DHT22;14472;56.880;16.658;2022-08-19T03:58:56;22.30;1.00
26907;DHT22;14472;56.880;16.658;2022-08-19T04:01:24;22.30;1.00
26907;DHT22;14472;56.880;16.658;2022-08-19T04:03:52;22.30;1.00
26907;DHT22;14472;56.880;16.658;2022-08-19T04:06:24;22.30;1.00
26907;DHT22;14472;56.880;16.658;2022-08-19T04:08:53;22.30;1.00
26907;DHT22;14472;56.880;16.658;2022-08-19T04:11:31;22.40;1.00
26907;DHT22;14472;56.880;16.658;2022-08-19T04:13:59;22.40;1.00
26907;DHT22;14472;56.880;16.658;2022-08-19T04:16:27;22.40;1.00
26907;DHT22;14472;56.880;16.658;2022-08-19T04:18:59;22.50;1.00
26907;DHT22;14472;56.880;16.658;2022-08-19T04:21:27;22.50;1.00
26907;DHT22;14472;56.880;16.658;2022-08-19T04:23:54;22.50;1.00
26907;DHT22;14472;56.880;16.658;2022-08-19T04:26:23;22.50;1.00
26907;DHT22;14472;56.880;16.658;2022-08-19T04:28:49;22.60;1.00
26907;DHT22;14472;56.880;16.658;2022-08-19T04:31:23;22.70;1.00
26907;DHT22;14472;56.880;16.658;2022-08-19T04:33:56;22.70;1.00
26907;DHT22;14472;56.880;16.658;2022-08-19T04:36:28;22.70;1.00
26907;DHT22;14472;56.880;16.658;2022-08-19T04:38:57;22.70;1.00
26907;DHT22;14472;56.880;16.658;2022-08-19T04:41:23;22.80;1.00
26907;DHT22;14472;56.880;16.658;2022-08-19T04:44:07;22.70;1.00
26907;DHT22;14472;56.880;16.658;2022-08-19T04:46:34;22.80;1.00
26907;DHT22;14472;56.880;16.658;2022-08-19T04:49:01;22.80;1.00
26907;DHT22;14472;56.880;16.658;2022-08-19T04:51:27;22.80;1.00
26907;DHT22;14472;56.880;16.658;2022-08-19T04:53:53;22.90;1.00
26907;DHT22;14472;56.880;16.658;2022-08-19T04:56:20;22.90;1.00
26907;DHT22;14472;56.880;16.658;2022-08-19T04:58:48;22.90;1.00
26907;DHT22;14472;56.880;16.658;2022-08-19T05:01:25;22.90;1.00
26907;DHT22;14472;56.880;16.658;2022-08-19T05:03:51;23.00;1.00
26907;DHT22;14472;56.880;16.658;2022-08-19T05:06:19;22.90;1.00
26907;DHT22;14472;56.880;16.658;2022-08-19T05:08:46;22.90;1.00
26907;DHT22;14472;56.880;16.658;2022-08-19T05:11:26;23.00;1.00
26907;DHT22;14472;56.880;16.658;2022-08-19T05:13:52;23.00;1.00
26907;DHT22;14472;56.880;16.658;2022-08-19T05:16:20;23.10;1.00
26907;DHT22;14472;56.880;16.658;2022-08-19T05:18:47;23.10;1.00
26907;DHT22;14472;56.880;16.658;2022-08-19T05:21:32;23.10;1.00
26907;DHT22;14472;56.880;16.658;2022-08-19T05:24:17;23.10;1.00
26907;DHT22;14472;56.880;16.658;2022-08-19T05:26:46;23.20;1.00
26907;DHT22;14472;56.880;16.658;2022-08-19T05:29:17;23.20;1.00
26907;DHT22;14472;56.880;16.658;2022-08-19T05:31:45;23.20;1.00
26907;DHT22;14472;56.880;16.658;2022-08-19T05:34:11;23.20;1.00
26907;DHT22;14472;56.880;16.658;2022-08-19T05:36:40;23.20;1.00
26907;DHT22;14472;56.880;16.658;2022-08-19T05:39:08;23.30;1.00
26907;DHT22;14472;56.880;16.658;2022-08-19T05:41:35;23.30;1.00
26907;DHT22;14472;56.880;16.658;2022-08-19T05:44:04;23.30;1.00
26907;DHT22;14472;56.880;16.658;2022-08-19T05:46:31;23.30;1.00
26907;DHT22;14472;56.880;16.658;2022-08-19T05:48:57;23.30;1.00
26907;DHT22;14472;56.880;16.658;2022-08-19T05:51:24;23.30;1.00
26907;DHT22;14472;56.880;16.658;2022-08-19T05:53:51;23.30;1.00
26907;DHT22;14472;56.880;16.658;2022-08-19T05:56:17;23.40;1.00
26907;DHT22;14472;56.880;16.658;2022-08-19T05:58:44;23.40;1.00
26907;DHT22;14472;56.880;16.658;2022-08-19T06:01:13;23.50;1.00
26907;DHT22;14472;56.880;16.658;2022-08-19T06:03:39;23.50;1.00
26907;DHT22;14472;56.880;16.658;2022-08-19T06:06:06;23.50;1.00
26907;DHT22;14472;56.880;16.658;2022-08-19T06:08:33;23.50;1.00
26907;DHT22;14472;56.880;16.658;2022-08-19T06:11:23;23.50;1.00
26907;DHT22;14472;56.880;16.658;2022-08-19T06:13:52;23.60;1.00
26907;DHT22;14472;56.880;16.658;2022-08-19T06:16:19;23.60;1.00
26907;DHT22;14472;56.880;16.658;2022-08-19T06:18:49;23.60;1.00
26907;DHT22;14472;56.880;16.658;2022-08-19T06:21:20;23.60;1.00
26907;DHT22;14472;56.880;16.658;2022-08-19T06:23:47;23.70;1.00
26907;DHT22;14472;56.880;16.658;2022-08-19T06:26:14;23.60;1.00
26907;DHT22;14472;56.880;16.658;2022-08-19T06:28:40;23.70;1.00
26907;DHT22;14472;56.880;16.658;2022-08-19T06:31:13;23.70;1.00
26907;DHT22;14472;56.880;16.658;2022-08-19T06:33:40;23.70;1.00
26907;DHT22;14472;56.880;16.658;2022-08-19T06:36:07;23.70;1.00
26907;DHT22;14472;56.880;16.658;2022-08-19T06:38:33;23.70;1.00
26907;DHT22;14472;56.880;16.658;2022-08-19T06:41:04;23.70;1.00
26907;DHT22;14472;56.880;16.658;2022-08-19T06:43:29;23.70;1.00
26907;DHT22;14472;56.880;16.658;2022-08-19T06:45:55;23.70;1.00
26907;DHT22;14472;56.880;16.658;2022-08-19T06:48:21;23.70;1.00
26907;DHT22;14472;56.880;16.658;2022-08-19T06:50:47;23.70;1.00
26907;DHT22;14472;56.880;16.658;2022-08-19T06:53:13;23.70;1.00
26907;DHT22;14472;56.880;16.658;2022-08-19T06:55:39;23.70;1.00
26907;DHT22;14472;56.880;16.658;2022-08-19T06:58:06;23.70;1.00
26907;DHT22;14472;56.880;16.658;2022-08-19T07:00:32;23.70;1.00
26907;DHT22;14472;56.880;16.658;2022-08-19T07:02:59;23.70;1.00
26907;DHT22;14472;56.880;16.658;2022-08-19T07:05:25;23.80;1.00
26907;DHT22;14472;56.880;16.658;2022-08-19T07:07:51;23.80;1.00
26907;DHT22;14472;56.880;16.658;2022-08-19T07:10:17;23.80;1.00
26907;DHT22;14472;56.880;16.658;2022-08-19T07:12:43;23.80;1.00
26907;DHT22;14472;56.880;16.658;2022-08-19T07:15:10;23.80;1.00
26907;DHT22;14472;56.880;16.658;2022-08-19T07:17:37;23.80;1.00
26907;DHT22;14472;56.880;16.658;2022-08-19T07:20:06;23.80;1.00
26907;DHT22;14472;56.880;16.658;2022-08-19T07:22:34;23.70;1.00
26907;DHT22;14472;56.880;16.658;2022-08-19T07:25:00;23.80;1.00
26907;DHT22;14472;56.880;16.658;2022-08-19T07:27:28;23.80;1.00
26907;DHT22;14472;56.880;16.658;2022-08-19T07:29:54;23.90;1.00
26907;DHT22;14472;56.880;16.658;2022-08-19T07:32:19;23.90;1.00
26907;DHT22;14472;56.880;16.658;2022-08-19T07:34:45;23.90;1.00
26907;DHT22;14472;56.880;16.658;2022-08-19T07:37:11;24.00;1.00
26907;DHT22;14472;56.880;16.658;2022-08-19T07:39:37;23.90;1.00
26907;DHT22;14472;56.880;16.658;2022-08-19T07:42:09;24.00;1.00
26907;DHT22;14472;56.880;16.658;2022-08-19T07:44:35;24.10;1.00
26907;DHT22;14472;56.880;16.658;2022-08-19T07:47:02;24.10;1.00
26907;DHT22;14472;56.880;16.658;2022-08-19T07:49:28;24.20;1.00
26907;DHT22;14472;56.880;16.658;2022-08-19T07:52:06;24.30;1.00
26907;DHT22;14472;56.880;16.658;2022-08-19T07:54:34;24.40;1.00
26907;DHT22;14472;56.880;16.658;2022-08-19T07:57:01;24.40;1.00
26907;DHT22;14472;56.880;16.658;2022-08-19T07:59:28;24.50;1.00
26907;DHT22;14472;56.880;16.658;2022-08-19T08:01:55;24.50;1.00
26907;DHT22;14472;56.880;16.658;2022-08-19T08:04:21;24.60;1.00
26907;DHT22;14472;56.880;16.658;2022-08-19T08:07:07;24.60;1.00
26907;DHT22;14472;56.880;16.658;2022-08-19T08:09:52;24.70;1.00
26907;DHT22;14472;56.880;16.658;2022-08-19T08:12:24;24.70;1.00
26907;DHT22;14472;56.880;16.658;2022-08-19T08:14:56;24.70;1.00
26907;DHT22;14472;56.880;16.658;2022-08-19T08:17:25;24.70;1.00
26907;DHT22;14472;56.880;16.658;2022-08-19T08:19:52;24.70;1.00
26907;DHT22;14472;56.880;16.658;2022-08-19T08:22:20;24.80;1.00
26907;DHT22;14472;56.880;16.658;2022-08-19T08:25:10;24.80;1.00
26907;DHT22;14472;56.880;16.658;2022-08-19T08:27:38;24.80;1.00
26907;DHT22;14472;56.880;16.658;2022-08-19T08:30:07;24.90;1.00
26907;DHT22;14472;56.880;16.658;2022-08-19T08:32:36;24.90;1.00
26907;DHT22;14472;56.880;16.658;2022-08-19T08:35:04;25.00;1.00
26907;DHT22;14472;56.880;16.658;2022-08-19T08:37:30;25.00;1.00
26907;DHT22;14472;56.880;16.658;2022-08-19T08:39:55;24.90;1.00
26907;DHT22;14472;56.880;16.658;2022-08-19T08:42:28;24.90;1.00
26907;DHT22;14472;56.880;16.658;2022-08-19T08:45:06;25.00;1.00
26907;DHT22;14472;56.880;16.658;2022-08-19T08:47:43;25.10;1.00
26907;DHT22;14472;56.880;16.658;2022-08-19T08:52:52;25.20;1.00
26907;DHT22;14472;56.880;16.658;2022-08-19T08:55:25;25.20;1.00
26907;DHT22;14472;56.880;16.658;2022-08-19T08:58:01;25.30;1.00
26907;DHT22;14472;56.880;16.658;2022-08-19T09:00:32;25.40;1.00
26907;DHT22;14472;56.880;16.658;2022-08-19T09:02:59;25.50;1.00
26907;DHT22;14472;56.880;16.658;2022-08-19T09:05:50;25.50;1.00
26907;DHT22;14472;56.880;16.658;2022-08-19T09:08:53;25.60;1.00
26907;DHT22;14472;56.880;16.658;2022-08-19T09:11:39;25.70;1.00
26907;DHT22;14472;56.880;16.658;2022-08-19T09:17:11;25.80;1.00
26907;DHT22;14472;56.880;16.658;2022-08-19T09:19:57;25.90;1.00
26907;DHT22;14472;56.880;16.658;2022-08-19T09:22:22;26.00;1.00
26907;DHT22;14472;56.880;16.658;2022-08-19T09:24:50;26.00;1.00
26907;DHT22;14472;56.880;16.658;2022-08-19T09:27:18;26.10;1.00
26907;DHT22;14472;56.880;16.658;2022-08-19T09:29:44;26.10;1.00
26907;DHT22;14472;56.880;16.658;2022-08-19T09:32:10;26.20;1.00
26907;DHT22;14472;56.880;16.658;2022-08-19T09:34:36;26.30;1.00
26907;DHT22;14472;56.880;16.658;2022-08-19T09:37:02;26.30;1.00
26907;DHT22;14472;56.880;16.658;2022-08-19T09:39:28;26.40;1.00
26907;DHT22;14472;56.880;16.658;2022-08-19T09:41:56;26.40;1.00
26907;DHT22;14472;56.880;16.658;2022-08-19T09:44:22;26.40;1.00
26907;DHT22;14472;56.880;16.658;2022-08-19T09:46:48;26.50;1.00
26907;DHT22;14472;56.880;16.658;2022-08-19T09:49:15;26.50;1.00
26907;DHT22;14472;56.880;16.658;2022-08-19T09:51:42;26.60;1.00
26907;DHT22;14472;56.880;16.658;2022-08-19T09:54:08;26.60;1.00
26907;DHT22;14472;56.880;16.658;2022-08-19T09:56:34;26.70;1.00
26907;DHT22;14472;56.880;16.658;2022-08-19T09:59:00;26.80;1.00
26907;DHT22;14472;56.880;16.658;2022-08-19T10:01:29;26.70;1.00
26907;DHT22;14472;56.880;16.658;2022-08-19T10:03:58;26.70;1.00
26907;DHT22;14472;56.880;16.658;2022-08-19T10:06:26;26.80;1.00
26907;DHT22;14472;56.880;16.658;2022-08-19T10:08:55;26.90;1.00
26907;DHT22;14472;56.880;16.658;2022-08-19T10:11:21;26.90;1.00
26907;DHT22;14472;56.880;16.658;2022-08-19T10:13:47;26.90;1.00
26907;DHT22;14472;56.880;16.658;2022-08-19T10:16:20;26.90;1.00
26907;DHT22;14472;56.880;16.658;2022-08-19T10:18:47;27.00;1.00
26907;DHT22;14472;56.880;16.658;2022-08-19T10:21:27;26.90;1.00
26907;DHT22;14472;56.880;16.658;2022-08-19T10:23:55;27.10;1.00
26907;DHT22;14472;56.880;16.658;2022-08-19T10:26:25;27.20;1.00
26907;DHT22;14472;56.880;16.658;2022-08-19T10:28:51;27.20;1.00
26907;DHT22;14472;56.880;16.658;2022-08-19T10:31:23;27.30;1.00
26907;DHT22;14472;56.880;16.658;2022-08-19T10:33:51;27.40;1.00
26907;DHT22;14472;56.880;16.658;2022-08-19T10:36:24;27.30;1.00
26907;DHT22;14472;56.880;16.658;2022-08-19T10:38:53;27.40;1.00
26907;DHT22;14472;56.880;16.658;2022-08-19T10:41:26;27.60;1.00
26907;DHT22;14472;56.880;16.658;2022-08-19T10:43:54;27.70;1.00
26907;DHT22;14472;56.880;16.658;2022-08-19T10:46:21;27.80;1.00
26907;DHT22;14472;56.880;16.658;2022-08-19T10:48:49;27.80;1.00
26907;DHT22;14472;56.880;16.658;2022-08-19T10:51:15;28.00;1.00
26907;DHT22;14472;56.880;16.658;2022-08-19T10:54:00;28.00;1.00
26907;DHT22;14472;56.880;16.658;2022-08-19T10:56:27;28.00;1.00
26907;DHT22;14472;56.880;16.658;2022-08-19T10:59:12;28.10;1.00
26907;DHT22;14472;56.880;16.658;2022-08-19T11:01:40;28.10;1.00
26907;DHT22;14472;56.880;16.658;2022-08-19T11:04:06;28.20;1.00
26907;DHT22;14472;56.880;16.658;2022-08-19T11:06:36;28.40;1.00
26907;DHT22;14472;56.880;16.658;2022-08-19T11:09:02;28.40;1.00
26907;DHT22;14472;56.880;16.658;2022-08-19T11:11:28;28.40;1.00
26907;DHT22;14472;56.880;16.658;2022-08-19T11:13:54;28.40;1.00
26907;DHT22;14472;56.880;16.658;2022-08-19T11:16:22;28.30;1.00
26907;DHT22;14472;56.880;16.658;2022-08-19T11:18:51;28.40;1.00
26907;DHT22;14472;56.880;16.658;2022-08-19T11:21:21;28.40;1.00
26907;DHT22;14472;56.880;16.658;2022-08-19T11:23:49;28.50;1.00
26907;DHT22;14472;56.880;16.658;2022-08-19T11:26:16;28.50;1.00
26907;DHT22;14472;56.880;16.658;2022-08-19T11:28:43;28.50;1.00
26907;DHT22;14472;56.880;16.658;2022-08-19T11:31:19;28.50;1.00
26907;DHT22;14472;56.880;16.658;2022-08-19T11:33:45;28.50;1.00
26907;DHT22;14472;56.880;16.658;2022-08-19T11:36:12;28.50;1.00
26907;DHT22;14472;56.880;16.658;2022-08-19T11:38:38;28.50;1.00
26907;DHT22;14472;56.880;16.658;2022-08-19T11:41:06;28.40;1.00
26907;DHT22;14472;56.880;16.658;2022-08-19T11:43:36;28.40;1.00
26907;DHT22;14472;56.880;16.658;2022-08-19T11:46:07;28.40;1.00
26907;DHT22;14472;56.880;16.658;2022-08-19T11:48:34;28.30;1.00
26907;DHT22;14472;56.880;16.658;2022-08-19T11:51:05;28.40;1.00
26907;DHT22;14472;56.880;16.658;2022-08-19T11:53:31;28.50;1.00
26907;DHT22;14472;56.880;16.658;2022-08-19T11:55:57;28.50;1.00
26907;DHT22;14472;56.880;16.658;2022-08-19T11:58:23;28.50;1.00
26907;DHT22;14472;56.880;16.658;2022-08-19T12:00:50;28.50;1.00
26907;DHT22;14472;56.880;16.658;2022-08-19T12:03:16;28.50;1.00
26907;DHT22;14472;56.880;16.658;2022-08-19T12:05:43;28.50;1.00
26907;DHT22;14472;56.880;16.658;2022-08-19T12:08:09;28.50;1.00
26907;DHT22;14472;56.880;16.658;2022-08-19T12:10:36;28.40;1.00
26907;DHT22;14472;56.880;16.658;2022-08-19T12:13:03;28.40;1.00
26907;DHT22;14472;56.880;16.658;2022-08-19T12:15:29;28.40;1.00
26907;DHT22;14472;56.880;16.658;2022-08-19T12:17:56;28.30;1.00
26907;DHT22;14472;56.880;16.658;2022-08-19T12:20:24;28.40;1.00
26907;DHT22;14472;56.880;16.658;2022-08-19T12:22:50;28.50;1.00
26907;DHT22;14472;56.880;16.658;2022-08-19T12:25:16;28.50;1.00
26907;DHT22;14472;56.880;16.658;2022-08-19T12:27:42;28.50;1.00
26907;DHT22;14472;56.880;16.658;2022-08-19T12:30:10;28.50;1.00
26907;DHT22;14472;56.880;16.658;2022-08-19T12:32:37;28.50;1.00
26907;DHT22;14472;56.880;16.658;2022-08-19T12:35:03;28.60;1.00
26907;DHT22;14472;56.880;16.658;2022-08-19T12:37:29;28.70;1.00
26907;DHT22;14472;56.880;16.658;2022-08-19T12:39:56;28.70;1.00
26907;DHT22;14472;56.880;16.658;2022-08-19T12:42:22;28.70;1.00
26907;DHT22;14472;56.880;16.658;2022-08-19T12:44:48;28.60;1.00
26907;DHT22;14472;56.880;16.658;2022-08-19T12:47:14;28.60;1.00
26907;DHT22;14472;56.880;16.658;2022-08-19T12:49:40;28.60;1.00
26907;DHT22;14472;56.880;16.658;2022-08-19T12:52:08;28.60;1.00
26907;DHT22;14472;56.880;16.658;2022-08-19T12:54:35;28.60;1.00
26907;DHT22;14472;56.880;16.658;2022-08-19T12:57:05;28.70;1.00
26907;DHT22;14472;56.880;16.658;2022-08-19T12:59:33;28.70;1.00
26907;DHT22;14472;56.880;16.658;2022-08-19T13:02:00;28.80;1.00
26907;DHT22;14472;56.880;16.658;2022-08-19T13:04:26;28.80;1.00
26907;DHT22;14472;56.880;16.658;2022-08-19T13:06:51;28.80;1.00
26907;DHT22;14472;56.880;16.658;2022-08-19T13:09:17;28.80;1.00
26907;DHT22;14472;56.880;16.658;2022-08-19T13:11:43;28.90;1.00
26907;DHT22;14472;56.880;16.658;2022-08-19T13:14:10;29.00;1.00
26907;DHT22;14472;56.880;16.658;2022-08-19T13:16:36;29.00;1.00
26907;DHT22;14472;56.880;16.658;2022-08-19T13:19:04;29.10;1.00
26907;DHT22;14472;56.880;16.658;2022-08-19T13:21:30;29.20;1.00
26907;DHT22;14472;56.880;16.658;2022-08-19T13:23:56;29.20;1.00
26907;DHT22;14472;56.880;16.658;2022-08-19T13:26:23;29.30;1.00
26907;DHT22;14472;56.880;16.658;2022-08-19T13:28:48;29.40;1.00
26907;DHT22;14472;56.880;16.658;2022-08-19T13:31:35;29.60;1.00
26907;DHT22;14472;56.880;16.658;2022-08-19T13:34:33;29.70;1.00
26907;DHT22;14472;56.880;16.658;2022-08-19T13:37:01;29.80;1.00
26907;DHT22;14472;56.880;16.658;2022-08-19T13:39:31;29.90;1.00
26907;DHT22;14472;56.880;16.658;2022-08-19T13:41:58;30.00;1.00
26907;DHT22;14472;56.880;16.658;2022-08-19T13:44:26;30.10;1.00
26907;DHT22;14472;56.880;16.658;2022-08-19T13:46:55;30.20;1.00
26907;DHT22;14472;56.880;16.658;2022-08-19T13:49:27;30.30;1.00
26907;DHT22;14472;56.880;16.658;2022-08-19T13:51:55;30.40;1.00
26907;DHT22;14472;56.880;16.658;2022-08-19T13:54:21;30.50;1.00
26907;DHT22;14472;56.880;16.658;2022-08-19T13:56:47;30.50;1.00
26907;DHT22;14472;56.880;16.658;2022-08-19T13:59:13;30.50;1.00
26907;DHT22;14472;56.880;16.658;2022-08-19T14:01:39;30.50;1.00
26907;DHT22;14472;56.880;16.658;2022-08-19T14:04:05;30.50;1.00
26907;DHT22;14472;56.880;16.658;2022-08-19T14:06:31;30.60;1.00
26907;DHT22;14472;56.880;16.658;2022-08-19T14:08:57;30.60;1.00
26907;DHT22;14472;56.880;16.658;2022-08-19T14:11:23;30.60;1.00
26907;DHT22;14472;56.880;16.658;2022-08-19T14:16:25;30.70;1.00
26907;DHT22;14472;56.880;16.658;2022-08-19T14:18:53;30.80;1.00
26907;DHT22;14472;56.880;16.658;2022-08-19T14:21:22;30.80;1.00
26907;DHT22;14472;56.880;16.658;2022-08-19T14:23:50;30.80;1.00
26907;DHT22;14472;56.880;16.658;2022-08-19T14:26:18;30.90;1.00
26907;DHT22;14472;56.880;16.658;2022-08-19T14:28:44;31.00;1.00
26907;DHT22;14472;56.880;16.658;2022-08-19T14:31:12;31.00;1.00
26907;DHT22;14472;56.880;16.658;2022-08-19T14:33:38;31.00;1.00
26907;DHT22;14472;56.880;16.658;2022-08-19T14:36:05;31.00;1.00
26907;DHT22;14472;56.880;16.658;2022-08-19T14:38:31;31.00;1.00
26907;DHT22;14472;56.880;16.658;2022-08-19T14:41:19;31.00;1.00
26907;DHT22;14472;56.880;16.658;2022-08-19T14:43:50;31.00;1.00
26907;DHT22;14472;56.880;16.658;2022-08-19T14:46:19;31.00;1.00
26907;DHT22;14472;56.880;16.658;2022-08-19T14:48:46;31.00;1.00
26907;DHT22;14472;56.880;16.658;2022-08-19T14:51:12;31.00;1.00
26907;DHT22;14472;56.880;16.658;2022-08-19T14:53:39;31.00;1.00
26907;DHT22;14472;56.880;16.658;2022-08-19T14:56:13;31.00;1.00
26907;DHT22;14472;56.880;16.658;2022-08-19T14:58:40;30.90;1.00
26907;DHT22;14472;56.880;16.658;2022-08-19T15:01:07;30.80;1.00
26907;DHT22;14472;56.880;16.658;2022-08-19T15:03:33;30.80;1.00
26907;DHT22;14472;56.880;16.658;2022-08-19T15:06:00;30.80;1.00
26907;DHT22;14472;56.880;16.658;2022-08-19T15:08:28;30.70;1.00
26907;DHT22;14472;56.880;16.658;2022-08-19T15:10:56;30.70;1.00
26907;DHT22;14472;56.880;16.658;2022-08-19T15:13:22;30.70;1.00
26907;DHT22;14472;56.880;16.658;2022-08-19T15:15:48;30.60;1.00
26907;DHT22;14472;56.880;16.658;2022-08-19T15:18:16;30.50;1.00
26907;DHT22;14472;56.880;16.658;2022-08-19T15:20:43;30.50;1.00
26907;DHT22;14472;56.880;16.658;2022-08-19T15:23:09;30.40;1.00
26907;DHT22;14472;56.880;16.658;2022-08-19T15:25:36;30.40;1.00
26907;DHT22;14472;56.880;16.658;2022-08-19T15:28:02;30.30;1.00
26907;DHT22;14472;56.880;16.658;2022-08-19T15:30:29;30.30;1.00
26907;DHT22;14472;56.880;16.658;2022-08-19T15:32:56;30.20;1.00
26907;DHT22;14472;56.880;16.658;2022-08-19T15:35:24;30.20;1.00
26907;DHT22;14472;56.880;16.658;2022-08-19T15:37:51;30.10;1.00
26907;DHT22;14472;56.880;16.658;2022-08-19T15:40:18;30.00;1.00
26907;DHT22;14472;56.880;16.658;2022-08-19T15:42:44;30.00;1.00
26907;DHT22;14472;56.880;16.658;2022-08-19T15:45:13;30.00;1.00
26907;DHT22;14472;56.880;16.658;2022-08-19T15:47:39;29.90;1.00